createdAt,value
2024-04-12T00:04:49.376Z,10.57
2024-04-12T00:09:55.506Z,10.52
2024-04-12T00:15:18.388Z,10.40
2024-04-12T00:20:22.777Z,10.41
2024-04-12T00:25:25.755Z,10.33
2024-04-12T00:30:42.953Z,10.31
2024-04-12T00:35:50.955Z,10.22
2024-04-12T00:40:54.414Z,10.17
2024-04-12T00:46:00.671Z,10.11
2024-04-12T00:51:04.288Z,10.06
2024-04-12T00:56:10.563Z,9.98
2024-04-12T01:01:19.217Z,9.90
2024-04-12T01:06:25.745Z,9.86
2024-04-12T01:11:33.001Z,9.84
2024-04-12T01:16:40.473Z,9.70
2024-04-12T01:21:45.868Z,9.68
2024-04-12T01:26:51.662Z,9.61
2024-04-12T01:31:55.321Z,9.57
2024-04-12T01:37:01.667Z,9.47
2024-04-12T01:42:07.506Z,9.45
2024-04-12T01:47:10.568Z,9.37
2024-04-12T01:52:27.046Z,9.33
2024-04-12T01:57:33.805Z,9.18
2024-04-12T02:02:37.046Z,9.17
2024-04-12T02:07:41.802Z,9.20
2024-04-12T02:12:48.097Z,9.11
2024-04-12T02:17:55.580Z,9.05
2024-04-12T02:22:59.263Z,9.04
2024-04-12T02:28:08.532Z,8.98
2024-04-12T02:33:12.813Z,8.97
2024-04-12T02:38:17.563Z,8.93
2024-04-12T02:43:26.103Z,8.90
2024-04-12T02:48:29.880Z,8.83
2024-04-12T02:53:37.410Z,8.77
2024-04-12T02:58:45.118Z,8.74
2024-04-12T03:03:49.703Z,8.70
2024-04-12T03:08:53.746Z,8.67
2024-04-12T03:14:04.994Z,8.69
2024-04-12T03:19:09.260Z,8.64
2024-04-12T03:24:13.329Z,8.64
2024-04-12T03:29:20.130Z,8.61
2024-04-12T03:34:25.719Z,8.63
2024-04-12T03:39:31.824Z,8.66
2024-04-12T03:44:38.657Z,8.57
2024-04-12T03:49:44.626Z,8.55
2024-04-12T03:54:49.872Z,8.48
2024-04-12T03:59:58.695Z,8.42
2024-04-12T04:05:15.333Z,8.37
2024-04-12T04:10:23.182Z,8.33
2024-04-12T04:15:28.993Z,8.29
2024-04-12T04:20:31.967Z,8.28
2024-04-12T04:25:35.764Z,8.28
2024-04-12T04:30:42.537Z,8.27
2024-04-12T04:35:46.474Z,8.31
2024-04-12T04:40:53.673Z,8.40
2024-04-12T04:46:00.554Z,8.47
2024-04-12T04:51:03.512Z,8.57
2024-04-12T04:56:06.938Z,8.69
2024-04-12T05:01:12.904Z,8.77
2024-04-12T05:06:20.356Z,8.87
2024-04-12T05:11:24.384Z,9.05
2024-04-12T05:16:30.000Z,9.21
2024-04-12T05:21:33.205Z,9.41
2024-04-12T05:26:37.763Z,9.53
2024-04-12T05:31:43.968Z,9.73
2024-04-12T05:36:49.285Z,9.76
2024-04-12T05:41:54.581Z,9.72
2024-04-12T05:47:01.680Z,9.94
2024-04-12T05:52:08.276Z,10.10
2024-04-12T05:57:12.549Z,10.37
2024-04-12T06:02:19.605Z,10.52
2024-04-12T06:07:22.593Z,10.60
2024-04-12T06:12:25.747Z,10.87
2024-04-12T06:17:31.538Z,10.98
2024-04-12T06:22:35.641Z,10.98
2024-04-12T06:27:40.619Z,11.26
2024-04-12T06:32:46.246Z,11.44
2024-04-12T06:37:52.438Z,11.63
2024-04-12T06:42:57.227Z,11.85
2024-04-12T06:48:04.984Z,12.19
2024-04-12T06:53:10.239Z,12.51
2024-04-12T06:58:18.943Z,12.83
2024-04-12T07:03:24.653Z,13.17
2024-04-12T07:08:28.352Z,13.37
2024-04-12T07:13:34.955Z,13.62
2024-04-12T07:19:55.582Z,14.03
2024-04-12T07:25:02.669Z,14.31
2024-04-12T07:30:07.750Z,14.45
2024-04-12T07:35:26.155Z,14.80
2024-04-12T07:40:33.149Z,15.14
2024-04-12T07:45:39.332Z,15.31
2024-04-12T07:50:46.605Z,15.17
2024-04-12T07:55:56.810Z,14.96
2024-04-12T08:01:10.946Z,14.72
2024-04-12T08:06:38.075Z,15.01
2024-04-12T08:11:43.327Z,15.68
2024-04-12T08:16:47.783Z,15.70
2024-04-12T08:21:56.279Z,15.53
2024-04-12T08:26:59.583Z,15.66
2024-04-12T08:32:13.067Z,15.65
2024-04-12T08:37:20.123Z,15.53
2024-04-12T08:42:30.411Z,15.43
2024-04-12T08:47:38.476Z,15.56
2024-04-12T08:52:49.572Z,15.70
2024-04-12T08:57:58.276Z,16.03
2024-04-12T09:03:04.530Z,16.27
2024-04-12T09:08:10.630Z,16.85
2024-04-12T09:13:16.553Z,17.17
2024-04-12T09:18:27.387Z,17.43
2024-04-12T09:23:38.126Z,17.09
2024-04-12T09:28:42.584Z,17.05
2024-04-12T09:33:52.479Z,17.23
2024-04-12T09:39:01.412Z,17.18
2024-04-12T09:44:04.925Z,17.36
2024-04-12T09:49:24.668Z,17.52
2024-04-12T09:54:46.532Z,17.82
2024-04-12T10:00:07.823Z,17.88
2024-04-12T10:05:36.509Z,18.04
2024-04-12T10:11:01.077Z,18.15
2024-04-12T10:16:23.153Z,18.27
2024-04-12T10:21:43.518Z,18.49
2024-04-12T10:27:06.686Z,18.83
2024-04-12T10:32:37.849Z,18.94
2024-04-12T10:37:41.273Z,19.11
2024-04-12T10:42:47.734Z,19.05
2024-04-12T10:47:51.946Z,19.32
2024-04-12T10:52:58.820Z,19.56
2024-04-12T10:58:09.084Z,19.39
2024-04-12T11:03:22.258Z,19.53
2024-04-12T11:08:27.983Z,19.60
2024-04-12T11:13:37.339Z,19.85
2024-04-12T11:18:58.920Z,19.86
2024-04-12T11:24:19.472Z,19.90
2024-04-12T11:29:41.369Z,19.90
2024-04-12T11:34:46.761Z,20.09
2024-04-12T11:39:50.140Z,20.29
2024-04-12T11:44:55.800Z,20.28
2024-04-12T11:50:06.532Z,20.57
2024-04-12T11:55:10.364Z,20.77
2024-04-12T12:00:16.956Z,20.82
2024-04-12T12:05:21.416Z,20.84
2024-04-12T12:10:26.898Z,20.68
2024-04-12T12:15:32.467Z,20.70
2024-04-12T12:20:35.553Z,20.95
2024-04-12T12:25:39.870Z,21.07
2024-04-12T12:30:48.755Z,21.58
2024-04-12T12:35:51.954Z,21.35
2024-04-12T12:40:54.908Z,21.36
2024-04-12T12:46:01.382Z,21.37
2024-04-12T12:51:04.888Z,21.75
2024-04-12T12:56:09.779Z,21.79
2024-04-12T13:01:17.805Z,21.69
2024-04-12T13:06:25.039Z,21.35
2024-04-12T13:11:28.120Z,21.79
2024-04-12T13:16:42.754Z,21.68
2024-04-12T13:21:47.746Z,21.71
2024-04-12T13:26:52.029Z,21.61
2024-04-12T13:31:58.734Z,21.59
2024-04-12T13:37:03.868Z,21.60
2024-04-12T13:42:12.174Z,21.80
2024-04-12T13:47:34.504Z,22.12
2024-04-12T13:52:38.393Z,22.22
2024-04-12T13:57:42.239Z,22.09
2024-04-12T14:02:47.945Z,21.90
2024-04-12T14:07:52.752Z,21.91
2024-04-12T14:12:56.502Z,21.61
2024-04-12T14:18:02.221Z,21.80
2024-04-12T14:23:05.241Z,21.79
2024-04-12T14:28:12.081Z,21.80
2024-04-12T14:33:18.969Z,21.70
2024-04-12T14:38:23.166Z,21.75
2024-04-12T14:43:26.101Z,21.67
2024-04-12T14:48:31.765Z,21.71
2024-04-12T14:53:35.009Z,21.49
2024-04-12T14:58:37.923Z,21.78
2024-04-12T15:03:59.270Z,21.86
2024-04-12T15:09:19.768Z,21.88
2024-04-12T15:14:40.214Z,21.90
2024-04-12T15:20:01.944Z,22.07
2024-04-12T15:25:21.080Z,22.18
2024-04-12T15:30:40.385Z,22.24
2024-04-12T15:36:02.173Z,22.33
2024-04-12T15:41:21.591Z,22.35
2024-04-12T15:46:40.806Z,22.76
2024-04-12T15:51:46.390Z,22.82
2024-04-12T15:57:06.286Z,22.17
2024-04-12T16:02:25.865Z,22.16
2024-04-12T16:07:47.663Z,22.44
2024-04-12T16:12:50.958Z,22.29
2024-04-12T16:17:53.985Z,22.31
2024-04-12T16:23:00.759Z,22.29
2024-04-12T16:28:03.727Z,22.08
2024-04-12T16:33:06.997Z,21.82
2024-04-12T16:38:12.812Z,21.59
2024-04-12T16:43:16.213Z,21.43
2024-04-12T16:48:19.388Z,21.27
2024-04-12T16:53:27.007Z,21.13
2024-04-12T16:58:30.078Z,21.02
2024-04-12T17:03:33.223Z,20.93
2024-04-12T17:08:38.887Z,20.89
2024-04-12T17:13:41.964Z,20.75
2024-04-12T17:18:45.029Z,20.59
2024-04-12T17:23:50.969Z,20.39
2024-04-12T17:28:53.969Z,20.30
2024-04-12T17:33:57.074Z,20.17
2024-04-12T17:39:12.647Z,19.94
2024-04-12T17:44:17.379Z,19.91
2024-04-12T17:49:20.580Z,19.58
2024-04-12T17:54:26.373Z,19.48
2024-04-12T17:59:29.600Z,19.39
2024-04-12T18:04:33.400Z,19.18
2024-04-12T18:09:39.139Z,19.17
2024-04-12T18:14:43.208Z,19.16
2024-04-12T18:19:46.257Z,19.16
2024-04-12T18:24:51.821Z,19.07
2024-04-12T18:29:58.177Z,18.82
2024-04-12T18:35:01.533Z,18.75
2024-04-12T18:40:23.550Z,18.58
2024-04-12T18:45:26.651Z,18.41
2024-04-12T18:50:29.625Z,18.38
2024-04-12T18:55:35.499Z,18.35
2024-04-12T19:00:38.532Z,18.24
2024-04-12T19:05:44.173Z,18.00
2024-04-12T19:10:49.996Z,17.80
2024-04-12T19:15:53.525Z,17.85
2024-04-12T19:20:56.648Z,17.51
2024-04-12T19:26:02.256Z,17.41
2024-04-12T19:31:08.610Z,17.23
2024-04-12T19:36:15.588Z,17.15
2024-04-12T19:41:21.331Z,16.97
2024-04-12T19:46:24.330Z,16.87
2024-04-12T19:51:29.536Z,16.79
2024-04-12T19:56:36.162Z,16.64
2024-04-12T20:01:40.954Z,16.50
2024-04-12T20:06:45.711Z,16.34
2024-04-12T20:11:51.690Z,16.36
2024-04-12T20:16:55.457Z,16.16
2024-04-12T20:21:59.319Z,16.11
2024-04-12T20:27:05.371Z,16.08
2024-04-12T20:32:25.231Z,15.96
2024-04-12T20:37:28.317Z,15.90
2024-04-12T20:42:35.747Z,16.14
2024-04-12T20:47:41.064Z,15.86
2024-04-12T20:52:45.196Z,15.60
2024-04-12T20:57:50.855Z,15.70
2024-04-12T21:02:53.799Z,15.59
2024-04-12T21:07:58.291Z,15.38
2024-04-12T21:13:03.897Z,15.40
2024-04-12T21:18:07.368Z,15.40
2024-04-12T21:23:10.362Z,15.07
2024-04-12T21:28:15.972Z,15.02
2024-04-12T21:33:19.056Z,14.99
2024-04-12T21:38:22.038Z,14.81
2024-04-12T21:43:27.751Z,14.62
2024-04-12T21:48:32.994Z,14.56
2024-04-12T21:53:36.704Z,14.42
2024-04-12T21:58:42.834Z,14.36
2024-04-12T22:03:46.445Z,14.32
2024-04-12T22:08:52.392Z,14.28
2024-04-12T22:13:59.788Z,14.12
2024-04-12T22:19:03.326Z,13.97
2024-04-12T22:24:06.521Z,13.86
2024-04-12T22:29:12.123Z,13.77
2024-04-12T22:34:15.175Z,13.78
2024-04-12T22:39:18.250Z,13.76
2024-04-12T22:44:24.802Z,13.67
2024-04-12T22:49:28.211Z,13.75
2024-04-12T22:54:31.362Z,13.58
2024-04-12T22:59:38.358Z,13.51
2024-04-12T23:04:41.494Z,13.49
2024-04-12T23:09:46.208Z,13.41
2024-04-12T23:14:51.741Z,13.29
2024-04-12T23:19:54.702Z,13.27
2024-04-12T23:24:58.098Z,13.21
2024-04-12T23:30:03.746Z,13.15
2024-04-12T23:35:07.110Z,13.15
2024-04-12T23:40:11.530Z,13.00
2024-04-12T23:45:17.188Z,12.99
2024-04-12T23:50:20.281Z,12.95
2024-04-12T23:55:23.447Z,12.92
